Fort Collins High School, Colorado
Current Conditions -  °F | °C
As of 2:35 AM on Thursday 27 Nov 2014 (Local Time) from KFNL Reporting Station
Clear Clear  
Wind Chill: 21°   Ceiling: Unl
Heat Index: 21°   Visibility: 8mi
Dew Point: 18°   Wind: 3mph
Humidity: 86%   Direction: 320°NW
Pressure: 30.26"   Gusts: NA
Location:  40.54033°N, 105.0358°W
Report Text: KFNL 270935Z AUTO 32003KT 8SM CLR M06/M08 A3026 RMK AO1
Loading
Personal Weather Stations






























Interactive Weather Map New forecast layout! Learn more

10-Day Weather Forecast

Advertisements
Track Severe Weather on mobile